Time;durP1;ratioP1;P1;durP2;ratioP2;P2;SDS_P1;SDS_P2;PMS_P1;PMS_P2;Temp;Humidity;BMP_temperature;BMP_pressure;BME280_temperature;BME280_humidity;BME280_pressure;Samples;Min_cycle;Max_cycle;Signal;HPM_P1;HPM_P2
2024/04/24 00:01:48;;;;;;;8.40;5.10;;;;;;;9.96;74.40;99292.23;107451;1253;60342;-39
2024/04/24 00:04:15;;;;;;;8.40;5.40;;;;;;;9.96;74.38;99287.67;107342;1253;71883;-39
2024/04/24 00:06:43;;;;;;;5.80;4.80;;;;;;;9.98;74.46;99286.29;107424;1253;67986;-39
2024/04/24 00:09:11;;;;;;;6.50;4.90;;;;;;;9.98;74.38;99280.51;107434;1257;72680;-39
2024/04/24 00:11:39;;;;;;;5.20;4.70;;;;;;;9.96;74.43;99275.73;107455;1254;60547;-38
2024/04/24 00:14:06;;;;;;;5.70;4.80;;;;;;;9.93;74.56;99269.40;107480;1253;60505;-37
2024/04/24 00:16:35;;;;;;;5.70;4.60;;;;;;;9.93;74.54;99260.82;107471;1254;72645;-37
2024/04/24 00:19:02;;;;;;;6.40;4.60;;;;;;;9.96;74.49;99262.06;107451;1253;67590;-37
2024/04/24 00:21:30;;;;;;;6.20;5.00;;;;;;;10.01;74.37;99254.56;107515;1254;72676;-37
2024/04/24 00:23:57;;;;;;;5.60;4.60;;;;;;;10.03;74.15;99248.94;107465;1254;60316;-37
2024/04/24 00:26:25;;;;;;;6.40;4.80;;;;;;;10.03;73.96;99250.27;107484;1253;60407;-37
2024/04/24 00:28:52;;;;;;;7.20;4.80;;;;;;;10.05;73.83;99244.27;107483;1253;73875;-37
2024/04/24 00:31:20;;;;;;;6.00;4.50;;;;;;;10.08;73.52;99240.22;107451;1253;67592;-37
2024/04/24 00:33:47;;;;;;;5.50;4.60;;;;;;;10.13;73.11;99233.50;107479;1254;72720;-38
2024/04/24 00:36:15;;;;;;;5.90;4.60;;;;;;;10.14;72.91;99224.55;107471;1254;60544;-38
2024/04/24 00:38:43;;;;;;;6.80;4.50;;;;;;;10.13;72.74;99220.27;107529;1254;60504;-38
2024/04/24 00:41:10;;;;;;;6.60;4.60;;;;;;;10.14;72.75;99212.06;107444;1253;73909;-37
2024/04/24 00:43:38;;;;;;;5.90;4.70;;;;;;;10.16;72.65;99209.59;107471;1253;67916;-37
2024/04/24 00:46:05;;;;;;;4.90;4.40;;;;;;;10.19;72.50;99205.39;107476;1253;72734;-37
2024/04/24 00:48:33;;;;;;;6.80;4.60;;;;;;;10.19;72.49;99201.27;107492;1254;60414;-37
2024/04/24 00:51:00;;;;;;;5.70;4.40;;;;;;;10.17;72.28;99194.13;107481;1253;60358;-37
2024/04/24 00:53:28;;;;;;;5.50;4.30;;;;;;;10.19;72.14;99187.96;107428;1255;73833;-37
2024/04/24 00:55:55;;;;;;;4.50;4.00;;;;;;;10.21;72.05;99185.92;107461;1253;66669;-37
2024/04/24 00:58:23;;;;;;;8.70;4.50;;;;;;;10.23;72.06;99182.55;107472;1253;72715;-37
2024/04/24 01:00:50;;;;;;;6.70;4.50;;;;;;;10.23;71.98;99175.64;107497;1253;61146;-38
2024/04/24 01:03:18;;;;;;;6.20;4.80;;;;;;;10.20;71.92;99172.29;107510;1253;60253;-37
2024/04/24 01:05:46;;;;;;;5.30;4.10;;;;;;;10.21;71.99;99170.52;107488;1253;74675;-38
2024/04/24 01:08:13;;;;;;;5.70;4.40;;;;;;;10.22;71.86;99166.98;107418;1253;66665;-38
2024/04/24 01:10:41;;;;;;;6.70;4.70;;;;;;;10.23;71.86;99158.08;107479;1253;72752;-39
2024/04/24 01:13:08;;;;;;;5.10;4.30;;;;;;;10.21;71.87;99158.23;107471;1254;61244;-38
2024/04/24 01:15:36;;;;;;;8.90;4.20;;;;;;;10.20;71.71;99155.95;107485;1254;61346;-38
2024/04/24 01:18:04;;;;;;;5.50;3.80;;;;;;;10.21;71.74;99145.90;107569;1253;74110;-38
2024/04/24 01:20:31;;;;;;;5.20;3.70;;;;;;;10.23;71.72;99144.54;107378;1259;67961;-38
2024/04/24 01:23:25;;;;;;;4.50;3.70;;;;;;;10.24;71.75;99141.85;107576;1257;72759;-38
2024/04/24 01:25:55;;;;;;;4.80;3.90;;;;;;;10.21;72.06;99137.55;107599;1254;61191;-38
2024/04/24 01:28:23;;;;;;;4.70;3.80;;;;;;;10.19;72.02;99129.06;107673;1253;61233;-38
2024/04/24 01:30:50;;;;;;;4.20;3.70;;;;;;;10.19;72.13;99122.87;107481;1253;73486;-38
2024/04/24 01:33:17;;;;;;;5.30;4.10;;;;;;;10.19;72.92;99119.85;107608;1254;67590;-38
2024/04/24 01:35:45;;;;;;;5.50;3.80;;;;;;;10.17;73.61;99108.77;107577;1253;72721;-38
2024/04/24 01:38:13;;;;;;;5.20;4.00;;;;;;;10.08;74.43;99094.10;107548;1253;61170;-38
2024/04/24 01:40:40;;;;;;;5.00;3.80;;;;;;;10.09;74.80;99090.86;107585;1254;61513;-38
2024/04/24 01:43:08;;;;;;;6.20;3.90;;;;;;;10.08;75.19;99083.81;107575;1253;74621;-38
2024/04/24 01:45:35;;;;;;;8.20;4.10;;;;;;;10.09;75.51;99080.42;107594;1253;67042;-38
2024/04/24 01:48:03;;;;;;;6.40;4.50;;;;;;;10.07;75.72;99078.38;107599;1253;72677;-38
2024/04/24 01:50:31;;;;;;;6.90;4.20;;;;;;;10.02;75.75;99080.17;107629;1254;61375;-38
2024/04/24 01:52:58;;;;;;;5.50;4.20;;;;;;;10.00;75.98;99078.51;107567;1253;61080;-38
2024/04/24 01:55:26;;;;;;;4.70;3.60;;;;;;;10.01;76.13;99077.91;107563;1253;74704;-38
2024/04/24 01:57:53;;;;;;;5.00;3.50;;;;;;;10.01;76.19;99069.48;107609;1254;67622;-38
2024/04/24 02:00:21;;;;;;;4.40;3.90;;;;;;;10.02;76.34;99064.15;107613;1253;72681;-38
2024/04/24 02:02:48;;;;;;;5.10;3.90;;;;;;;10.01;76.36;99062.67;107574;1253;61362;-38
2024/04/24 02:05:16;;;;;;;6.20;3.90;;;;;;;9.98;76.41;99061.91;107685;1254;61320;-38
2024/04/24 02:07:43;;;;;;;5.90;4.00;;;;;;;9.98;76.27;99058.13;107663;1254;74670;-38
2024/04/24 02:10:11;;;;;;;7.10;4.10;;;;;;;9.99;76.42;99056.27;107573;1254;66645;-38
2024/04/24 02:12:38;;;;;;;6.60;4.40;;;;;;;9.99;76.58;99050.08;107606;1256;72689;-38
2024/04/24 02:15:06;;;;;;;4.40;3.90;;;;;;;9.94;76.78;99049.08;107594;1254;61320;-38
2024/04/24 02:17:34;;;;;;;5.20;3.80;;;;;;;9.91;77.05;99054.23;107610;1253;61352;-38
2024/04/24 02:20:03;;;;;;;5.50;4.10;;;;;;;9.91;77.33;99050.05;107531;1256;74704;-38
2024/04/24 02:22:30;;;;;;;5.20;4.00;;;;;;;9.92;77.65;99046.80;107636;1254;67881;-38
2024/04/24 02:27:48;;;;;;;5.20;4.40;;;;;;;9.88;78.33;99040.32;107577;1254;61303;-38
2024/04/24 02:30:15;;;;;;;5.80;4.10;;;;;;;9.84;78.80;99036.53;107611;1252;60063;-38
2024/04/24 02:32:43;;;;;;;6.10;4.20;;;;;;;9.83;79.16;99031.41;107488;1254;75157;-38
2024/04/24 02:35:10;;;;;;;6.10;4.10;;;;;;;9.82;79.22;99024.38;107572;1254;68019;-38
2024/04/24 02:37:37;;;;;;;6.20;4.80;;;;;;;9.80;79.60;99020.85;107577;1253;72685;-38
2024/04/24 02:40:06;;;;;;;6.20;4.40;;;;;;;9.76;79.84;99021.02;107525;1254;61100;-38
2024/04/24 02:42:34;;;;;;;7.20;4.60;;;;;;;9.72;80.23;99012.90;107628;1253;61084;-38
2024/04/24 02:45:01;;;;;;;6.50;4.60;;;;;;;9.72;80.58;99011.29;107589;1254;74733;-38
2024/04/24 02:47:29;;;;;;;5.00;4.50;;;;;;;9.72;80.70;99006.42;107645;1254;67941;-38
2024/04/24 02:49:57;;;;;;;4.80;4.30;;;;;;;9.72;80.79;98995.90;107583;1254;70271;-38
2024/04/24 02:52:24;;;;;;;5.40;4.80;;;;;;;9.71;80.92;98991.94;107591;1254;60955;-38
2024/04/24 02:54:52;;;;;;;5.80;4.60;;;;;;;9.67;81.11;98982.20;107563;1253;61084;-38
2024/04/24 02:57:19;;;;;;;5.70;4.80;;;;;;;9.64;81.41;98981.67;107585;1253;74622;-38
2024/04/24 02:59:47;;;;;;;6.90;4.90;;;;;;;9.62;81.56;98982.29;107555;1252;66609;-38
2024/04/24 03:02:14;;;;;;;5.10;4.20;;;;;;;9.62;81.80;98977.72;107550;1253;72674;-38
2024/04/24 03:04:42;;;;;;;6.00;4.30;;;;;;;9.61;82.18;98971.90;107549;1254;61657;-38
2024/04/24 03:07:09;;;;;;;5.20;4.60;;;;;;;9.61;82.27;98971.88;107589;1253;61048;-38
2024/04/24 03:09:37;;;;;;;6.80;4.60;;;;;;;9.58;82.60;98969.52;107548;1254;74765;-38
2024/04/24 03:12:04;;;;;;;5.80;4.90;;;;;;;9.57;82.82;98967.50;107524;1256;67555;-37
2024/04/24 03:14:32;;;;;;;6.70;4.70;;;;;;;9.57;83.04;98966.58;107562;1254;72712;-38
2024/04/24 03:17:00;;;;;;;6.90;4.50;;;;;;;9.57;83.24;98964.09;107665;1253;61244;-38
2024/04/24 03:19:27;;;;;;;5.20;4.60;;;;;;;9.56;83.54;98960.21;107733;1252;61131;-38
2024/04/24 03:21:55;;;;;;;8.10;5.10;;;;;;;9.55;83.61;98958.34;107547;1252;74603;-38
2024/04/24 03:24:22;;;;;;;5.10;4.30;;;;;;;9.53;83.97;98952.66;107523;1253;67050;-38
2024/04/24 03:26:50;;;;;;;7.40;5.20;;;;;;;9.53;84.07;98943.70;107506;1254;72680;-38
2024/04/24 03:29:17;;;;;;;5.60;4.40;;;;;;;9.54;84.11;98941.39;107528;1253;61250;-38
2024/04/24 03:31:48;;;;;;;6.20;4.70;;;;;;;9.55;84.28;98939.54;107557;1252;60049;-38
2024/04/24 03:34:16;;;;;;;6.60;4.90;;;;;;;9.56;84.33;98933.15;107582;1252;74674;-38
2024/04/24 03:36:43;;;;;;;6.30;5.10;;;;;;;9.54;84.56;98931.11;107585;1256;66656;-38
2024/04/24 03:39:10;;;;;;;5.80;4.60;;;;;;;9.52;84.91;98930.70;107557;1253;72669;-38
2024/04/24 03:41:38;;;;;;;6.30;4.60;;;;;;;9.52;85.33;98926.52;107493;1254;61687;-38
2024/04/24 03:44:05;;;;;;;4.90;4.30;;;;;;;9.53;85.58;98923.84;107563;1253;61025;-38
2024/04/24 03:46:33;;;;;;;4.80;4.10;;;;;;;9.55;85.71;98916.35;107557;1254;74675;-38
2024/04/24 03:49:01;;;;;;;6.20;4.40;;;;;;;9.57;85.95;98908.98;107561;1252;67575;-38
2024/04/24 03:51:28;;;;;;;6.60;4.60;;;;;;;9.61;85.96;98910.73;107529;1254;72691;-38
2024/04/24 03:53:55;;;;;;;8.80;4.70;;;;;;;9.63;85.97;98904.80;107557;1254;60433;-38
2024/04/24 03:56:23;;;;;;;5.80;4.00;;;;;;;9.63;85.99;98903.50;107569;1256;61106;-38
2024/04/24 03:58:50;;;;;;;5.60;4.10;;;;;;;9.65;85.92;98898.17;107522;1254;74716;-38
2024/04/24 04:01:18;;;;;;;5.60;4.10;;;;;;;9.69;86.02;98889.74;107558;1253;66586;-38
2024/04/24 04:03:45;;;;;;;4.00;3.60;;;;;;;9.75;85.98;98889.13;107522;1254;72691;-38
2024/04/24 04:06:13;;;;;;;4.50;3.50;;;;;;;9.79;85.95;98891.66;107531;1252;62096;-38
2024/04/24 04:08:41;;;;;;;6.10;4.00;;;;;;;9.81;85.87;98889.92;107556;1252;61298;-38
2024/04/24 04:11:08;;;;;;;6.30;3.50;;;;;;;9.82;85.92;98884.90;107564;1253;74793;-38
2024/04/24 04:13:36;;;;;;;4.60;3.40;;;;;;;9.84;85.91;98883.15;107536;1252;66431;-38
2024/04/24 04:16:03;;;;;;;4.00;3.10;;;;;;;9.91;85.89;98881.00;107562;1253;72763;-38
2024/04/24 04:18:32;;;;;;;3.40;3.10;;;;;;;9.94;85.61;98876.16;107563;1252;61365;-38
2024/04/24 04:21:00;;;;;;;5.80;3.00;;;;;;;9.94;85.73;98871.84;107500;1252;61202;-38
2024/04/24 04:23:27;;;;;;;7.50;3.20;;;;;;;9.92;85.59;98857.98;107525;1254;73338;-38
2024/04/24 04:25:54;;;;;;;3.30;3.00;;;;;;;9.96;85.37;98855.48;107545;1253;67924;-38
2024/04/24 04:28:23;;;;;;;6.90;3.10;;;;;;;9.97;85.42;98853.08;107550;1253;73284;-38
2024/04/24 04:30:51;;;;;;;3.20;2.90;;;;;;;9.95;85.49;98847.72;107538;1254;61244;-38
2024/04/24 04:33:18;;;;;;;5.20;2.90;;;;;;;10.00;85.49;98840.36;107532;1254;61183;-38
2024/04/24 04:35:46;;;;;;;4.00;3.20;;;;;;;10.04;85.50;98841.88;107503;1254;74608;-38
2024/04/24 04:38:13;;;;;;;4.20;2.90;;;;;;;10.03;85.97;98836.52;107607;1253;66320;-39
2024/04/24 04:40:44;;;;;;;4.90;3.20;;;;;;;10.01;86.37;98833.96;107541;1253;72941;-38
2024/04/24 04:43:12;;;;;;;3.90;3.00;;;;;;;10.03;86.83;98825.15;107543;1254;63769;-37
2024/04/24 04:45:39;;;;;;;3.60;3.20;;;;;;;10.04;87.12;98818.81;107562;1253;60902;-38
2024/04/24 04:48:07;;;;;;;4.00;3.10;;;;;;;9.99;87.90;98813.88;107587;1253;73297;-38
2024/04/24 04:50:35;;;;;;;3.40;2.90;;;;;;;9.97;88.19;98816.80;107592;1254;66414;-38
2024/04/24 04:53:03;;;;;;;6.50;3.30;;;;;;;10.00;88.48;98806.08;107568;1253;72676;-38
2024/04/24 04:55:30;;;;;;;4.40;3.20;;;;;;;10.01;88.90;98807.03;107533;1253;61247;-38
2024/04/24 04:58:01;;;;;;;6.00;2.80;;;;;;;9.97;89.32;98795.38;107575;1254;60283;-38
2024/04/24 05:00:28;;;;;;;7.60;2.90;;;;;;;9.96;89.72;98785.92;107554;1252;74749;-38
2024/04/24 05:02:56;;;;;;;3.60;3.00;;;;;;;9.96;90.20;98781.98;107587;1254;67803;-38
2024/04/24 05:05:23;;;;;;;3.90;3.00;;;;;;;9.94;90.56;98783.33;107679;1252;74092;-38
2024/04/24 05:07:51;;;;;;;3.70;2.90;;;;;;;9.90;91.01;98787.70;107520;1253;61540;-38
2024/04/24 05:10:19;;;;;;;6.50;2.90;;;;;;;9.93;91.23;98789.81;107485;1253;61871;-38
2024/04/24 05:12:46;;;;;;;4.10;3.10;;;;;;;9.95;91.42;98788.85;107524;1257;73818;-38
2024/04/24 05:15:14;;;;;;;6.20;3.50;;;;;;;9.97;91.75;98788.63;107550;1254;67817;-38
2024/04/24 05:17:41;;;;;;;5.30;2.90;;;;;;;9.97;92.19;98782.60;107523;1253;73119;-38
2024/04/24 05:20:09;;;;;;;4.30;2.90;;;;;;;9.99;92.48;98773.04;107562;1254;62374;-39
2024/04/24 05:22:46;;;;;;;4.80;2.60;;;;;;;10.02;92.44;98770.12;107590;1257;61109;-39
2024/04/24 05:25:16;;;;;;;5.20;3.20;;;;;;;10.05;92.52;98766.06;107558;1253;74024;-39
2024/04/24 05:30:30;;;;;;;6.50;3.30;;;;;;;10.09;93.02;98750.84;107566;1252;73080;-39
2024/04/24 05:32:58;;;;;;;4.40;3.20;;;;;;;10.09;93.24;98741.33;107598;1254;63835;-39
2024/04/24 05:35:25;;;;;;;4.40;3.10;;;;;;;10.13;93.16;98746.02;107549;1254;60459;-38
2024/04/24 05:37:53;;;;;;;5.00;3.10;;;;;;;10.17;93.41;98746.46;107624;1252;73440;-38
2024/04/24 05:40:21;;;;;;;4.50;3.20;;;;;;;10.22;93.53;98740.42;107431;1253;68139;-38
2024/04/24 05:42:49;;;;;;;3.30;3.00;;;;;;;10.27;93.31;98725.60;107449;1254;71450;-38
2024/04/24 05:45:17;;;;;;;6.50;3.40;;;;;;;10.29;93.20;98714.79;107512;1253;61307;-38
2024/04/24 05:47:45;;;;;;;3.10;2.80;;;;;;;10.32;93.09;98718.15;107467;1257;60985;-38
2024/04/24 05:50:13;;;;;;;5.20;3.10;;;;;;;10.34;93.14;98726.46;107484;1253;74808;-38
2024/04/24 05:52:41;;;;;;;3.50;3.20;;;;;;;10.37;93.02;98722.61;107446;1253;68274;-38
2024/04/24 05:55:10;;;;;;;3.90;3.40;;;;;;;10.41;93.16;98708.16;107455;1257;73069;-38
2024/04/24 05:57:37;;;;;;;7.50;3.70;;;;;;;10.46;93.26;98698.14;107427;1253;59574;-38
2024/04/24 06:00:07;;;;;;;3.80;3.30;;;;;;;10.51;93.24;98684.86;107384;1253;61120;-38
2024/04/24 06:02:34;;;;;;;4.10;3.40;;;;;;;10.55;93.87;98678.48;107398;1253;75058;-38
2024/04/24 06:05:02;;;;;;;4.40;3.50;;;;;;;10.62;93.86;98667.85;107472;1253;68735;-38
2024/04/24 06:07:30;;;;;;;4.80;3.40;;;;;;;10.68;93.22;98659.68;107464;1253;73103;-38
2024/04/24 06:09:58;;;;;;;5.20;3.40;;;;;;;10.70;92.41;98660.00;107422;1254;61561;-38
2024/04/24 06:12:25;;;;;;;4.90;3.20;;;;;;;10.73;91.72;98650.65;107410;1258;60994;-38
2024/04/24 06:14:53;;;;;;;8.20;4.30;;;;;;;10.74;91.54;98655.08;107428;1253;74720;-38
2024/04/24 06:17:20;;;;;;;7.90;3.30;;;;;;;10.78;91.80;98657.42;107427;1253;68344;-39
2024/04/24 06:19:48;;;;;;;4.80;3.40;;;;;;;10.81;91.38;98642.41;107451;1253;71331;-39
2024/04/24 06:22:15;;;;;;;7.20;4.00;;;;;;;10.84;91.07;98635.46;107466;1253;61256;-39
2024/04/24 06:24:42;;;;;;;4.30;3.50;;;;;;;10.86;90.63;98632.68;107449;1253;61308;-39
2024/04/24 06:27:10;;;;;;;4.10;3.40;;;;;;;10.85;89.77;98625.46;107423;1253;74727;-39
2024/04/24 06:29:37;;;;;;;8.70;3.50;;;;;;;10.83;89.85;98621.81;107417;1253;66572;-39
2024/04/24 06:32:05;;;;;;;6.30;3.80;;;;;;;10.80;89.50;98620.33;107421;1253;74687;-39
2024/04/24 06:34:33;;;;;;;6.30;4.20;;;;;;;10.79;89.75;98622.12;107402;1253;61827;-39
2024/04/24 06:37:00;;;;;;;5.20;3.90;;;;;;;10.78;89.86;98619.23;107515;1253;61322;-39
2024/04/24 06:39:28;;;;;;;3.70;3.20;;;;;;;10.76;90.19;98616.59;107497;1253;73596;-38
2024/04/24 06:41:55;;;;;;;7.50;4.20;;;;;;;10.77;90.56;98607.45;107457;1254;68394;-38
2024/04/24 06:44:23;;;;;;;5.00;3.80;;;;;;;10.77;90.80;98603.89;107482;1253;72339;-38
2024/04/24 06:46:50;;;;;;;6.80;3.70;;;;;;;10.79;90.60;98597.95;107454;1253;61802;-38
2024/04/24 06:49:17;;;;;;;5.40;3.60;;;;;;;10.80;90.72;98596.08;107311;1253;60408;-38
2024/04/24 06:51:45;;;;;;;5.30;3.70;;;;;;;10.81;90.92;98586.33;107390;1253;75170;-39
2024/04/24 06:54:12;;;;;;;6.20;3.90;;;;;;;10.86;90.96;98589.52;107451;1253;66633;-39
2024/04/24 06:56:40;;;;;;;6.90;3.70;;;;;;;10.89;90.69;98585.36;107488;1254;71880;-38
2024/04/24 06:59:07;;;;;;;5.70;4.40;;;;;;;10.94;90.78;98587.40;107465;1256;61735;-38
2024/04/24 07:01:35;;;;;;;8.90;3.90;;;;;;;10.97;89.92;98582.30;107497;1257;60488;-38
2024/04/24 07:04:03;;;;;;;4.70;3.60;;;;;;;10.98;89.30;98584.64;107482;1256;73504;-38
2024/04/24 07:06:30;;;;;;;4.30;3.70;;;;;;;11.00;89.37;98584.40;107433;1253;69489;-38
2024/04/24 07:08:58;;;;;;;6.10;3.90;;;;;;;11.01;89.32;98585.80;107422;1254;74904;-38
2024/04/24 07:11:26;;;;;;;5.90;3.60;;;;;;;10.99;88.87;98585.48;107494;1253;62075;-38
2024/04/24 07:13:54;;;;;;;4.80;3.80;;;;;;;10.99;89.07;98586.50;107473;1253;62159;-39
2024/04/24 07:16:21;;;;;;;5.00;4.00;;;;;;;10.92;88.89;98577.62;107404;1258;76941;-38
2024/04/24 07:18:49;;;;;;;6.30;4.00;;;;;;;10.95;88.75;98576.23;107445;1253;68430;-39
2024/04/24 07:21:16;;;;;;;6.20;4.40;;;;;;;10.91;88.81;98567.86;107405;1254;71534;-38
2024/04/24 07:23:44;;;;;;;7.70;4.10;;;;;;;10.88;89.15;98567.31;107407;1254;61260;-39
2024/04/24 07:26:11;;;;;;;6.00;4.30;;;;;;;10.86;89.63;98569.85;107438;1253;61236;-38
2024/04/24 07:28:39;;;;;;;6.80;4.50;;;;;;;10.86;90.11;98567.75;107519;1253;72459;-38
2024/04/24 07:31:07;;;;;;;6.40;4.60;;;;;;;10.85;90.38;98562.09;107455;1253;66343;-39
2024/04/24 07:33:34;;;;;;;8.60;4.30;;;;;;;10.85;90.61;98555.97;107383;1258;71500;-38
2024/04/24 07:36:02;;;;;;;7.20;4.80;;;;;;;10.87;90.86;98546.08;107385;1253;62003;-38
2024/04/24 07:38:34;;;;;;;7.90;4.80;;;;;;;10.89;90.48;98536.87;107413;1253;61103;-39
2024/04/24 07:41:05;;;;;;;8.40;4.40;;;;;;;10.89;90.72;98527.79;107324;1253;73485;-39
2024/04/24 07:43:32;;;;;;;7.90;4.80;;;;;;;10.88;90.61;98522.21;107357;1253;65656;-39
2024/04/24 07:46:01;;;;;;;7.20;5.20;;;;;;;10.85;90.96;98513.67;107348;1253;72702;-38
2024/04/24 07:48:28;;;;;;;5.80;4.80;;;;;;;10.82;91.20;98503.75;107393;1253;60981;-38
2024/04/24 07:50:56;;;;;;;6.40;4.60;;;;;;;10.81;91.38;98498.24;107463;1253;60396;-38
2024/04/24 07:53:24;;;;;;;7.00;5.20;;;;;;;10.81;91.36;98502.74;107432;1253;75025;-39
2024/04/24 07:55:51;;;;;;;8.20;4.80;;;;;;;10.78;91.54;98493.90;107500;1253;69027;-39
2024/04/24 07:58:19;;;;;;;5.80;4.60;;;;;;;10.76;91.55;98492.34;107397;1253;72778;-39
2024/04/24 08:00:46;;;;;;;6.80;4.80;;;;;;;10.74;92.27;98483.98;107397;1258;63822;-38
2024/04/24 08:03:14;;;;;;;8.70;4.90;;;;;;;10.68;92.85;98474.11;107406;1253;60010;-38
2024/04/24 08:05:42;;;;;;;6.40;4.90;;;;;;;10.73;93.32;98478.39;107338;1253;73463;-38
2024/04/24 08:08:09;;;;;;;7.00;4.80;;;;;;;10.74;93.71;98466.16;107390;1254;66883;-39
2024/04/24 08:10:37;;;;;;;5.50;4.90;;;;;;;10.73;93.72;98454.84;107288;1256;75050;-39
2024/04/24 08:13:05;;;;;;;6.60;5.20;;;;;;;10.73;93.82;98447.25;107313;1256;61269;-38
2024/04/24 08:15:32;;;;;;;6.40;5.30;;;;;;;10.73;93.90;98444.08;107392;1256;61122;-39
2024/04/24 08:18:00;;;;;;;7.50;4.80;;;;;;;10.71;93.89;98437.40;107368;1254;74711;-39
2024/04/24 08:20:27;;;;;;;5.90;5.00;;;;;;;10.71;94.20;98435.78;107383;1258;69192;-38
2024/04/24 08:22:55;;;;;;;9.30;5.90;;;;;;;10.70;93.98;98438.94;107417;1254;72385;-38
2024/04/24 08:25:23;;;;;;;7.70;5.50;;;;;;;10.69;94.08;98446.68;107383;1256;62221;-38
2024/04/24 08:27:53;;;;;;;7.40;5.50;;;;;;;10.67;94.06;98444.98;107300;1259;61067;-39
2024/04/24 08:30:20;;;;;;;7.80;5.70;;;;;;;10.65;94.34;98447.98;107336;1260;74056;-38
2024/04/24 08:32:56;;;;;;;8.50;5.90;;;;;;;10.64;94.71;98445.44;107342;1254;66870;-38
2024/04/24 08:35:25;;;;;;;9.90;5.70;;;;;;;10.63;94.80;98452.17;107275;1256;73561;-38
2024/04/24 08:37:53;;;;;;;7.60;5.70;;;;;;;10.65;94.80;98452.79;107238;1254;61872;-38
2024/04/24 08:40:21;;;;;;;10.30;5.80;;;;;;;10.67;94.94;98441.65;107336;1254;61173;-38
2024/04/24 08:42:48;;;;;;;8.80;6.00;;;;;;;10.66;95.00;98424.92;107230;1254;73830;-38
2024/04/24 08:45:16;;;;;;;9.30;6.00;;;;;;;10.63;95.19;98415.77;107231;1256;67560;-38
2024/04/24 08:47:44;;;;;;;8.50;5.90;;;;;;;10.60;95.50;98403.59;107233;1256;72543;-39
2024/04/24 08:50:12;;;;;;;10.30;5.90;;;;;;;10.58;95.84;98388.96;107300;1256;61148;-39
2024/04/24 08:52:42;;;;;;;12.30;6.30;;;;;;;10.56;96.04;98386.77;107254;1256;61125;-39
2024/04/24 08:55:10;;;;;;;11.90;6.60;;;;;;;10.52;96.29;98382.90;107377;1256;73703;-38
2024/04/24 08:57:39;;;;;;;7.40;6.00;;;;;;;10.51;96.63;98388.55;107297;1254;67988;-38
2024/04/24 09:00:07;;;;;;;11.30;7.00;;;;;;;10.49;96.92;98386.54;107267;1256;73777;-39
2024/04/24 09:02:38;;;;;;;8.70;6.20;;;;;;;10.48;97.25;98381.04;107405;1256;60831;-38
2024/04/24 09:05:06;;;;;;;6.10;5.50;;;;;;;10.50;97.21;98376.32;107301;1256;195400;-39
2024/04/24 09:09:34;;;;;;;8.70;6.30;;;;;;;10.48;97.64;98373.98;104369;1289;601306;-38
2024/04/24 09:12:05;;;;;;;9.00;6.70;;;;;;;10.50;97.68;98374.08;106812;1265;60340;-38
2024/04/24 09:14:33;;;;;;;7.60;6.40;;;;;;;10.50;97.59;98374.91;106777;1266;59586;-38
2024/04/24 09:17:02;;;;;;;7.90;6.40;;;;;;;10.52;97.72;98357.19;106746;1264;71494;-38
2024/04/24 09:19:31;;;;;;;8.90;6.20;;;;;;;10.51;97.79;98341.77;106797;1265;69233;-38
2024/04/24 09:21:59;;;;;;;8.20;5.80;;;;;;;10.50;97.87;98359.96;106741;1265;73221;-38
2024/04/24 09:24:27;;;;;;;8.50;6.50;;;;;;;10.53;98.07;98353.48;106634;1263;61401;-38
2024/04/24 09:26:55;;;;;;;9.60;5.90;;;;;;;10.54;98.12;98321.05;106715;1263;59494;-38
2024/04/24 09:29:23;;;;;;;8.00;5.90;;;;;;;10.52;98.07;98307.71;106783;1263;73582;-38
2024/04/24 09:31:51;;;;;;;6.70;5.60;;;;;;;10.54;98.24;98316.55;106794;1263;66648;-38
2024/04/24 09:34:19;;;;;;;8.20;6.10;;;;;;;10.57;98.41;98326.38;106831;1263;72339;-38
2024/04/24 09:36:46;;;;;;;6.60;5.40;;;;;;;10.57;98.27;98330.95;106812;1263;63902;-38
2024/04/24 09:39:15;;;;;;;8.00;5.10;;;;;;;10.57;98.25;98327.48;106764;1263;60920;-38
2024/04/24 09:41:44;;;;;;;8.10;5.50;;;;;;;10.59;98.23;98321.29;106864;1263;72677;-38
2024/04/24 09:44:15;;;;;;;7.90;5.10;;;;;;;10.61;97.98;98324.76;106801;1262;67131;-38
2024/04/24 09:46:51;;;;;;;7.50;5.40;;;;;;;10.61;97.72;98329.95;106891;1263;74932;-38
2024/04/24 09:49:20;;;;;;;6.90;4.90;;;;;;;10.62;97.45;98334.06;106847;1263;63749;-38
2024/04/24 09:51:50;;;;;;;7.20;4.90;;;;;;;10.66;97.62;98344.29;106890;1264;59426;-38
2024/04/24 09:54:17;;;;;;;11.50;5.50;;;;;;;10.68;97.29;98335.23;106813;1264;76028;-38
2024/04/24 09:56:46;;;;;;;10.80;5.50;;;;;;;10.70;97.28;98349.02;106812;1264;67800;-38
2024/04/24 09:59:15;;;;;;;7.40;5.40;;;;;;;10.72;97.29;98353.21;106752;1263;71224;-38
2024/04/24 10:01:46;;;;;;;8.70;5.80;;;;;;;10.74;97.04;98332.30;106779;1264;60552;-38
2024/04/24 10:04:14;;;;;;;6.90;5.90;;;;;;;10.76;97.07;98325.56;106930;1263;60326;-38
2024/04/24 10:06:43;;;;;;;7.70;5.40;;;;;;;10.78;97.14;98313.73;106825;1262;72701;-38
2024/04/24 10:09:11;;;;;;;9.70;5.50;;;;;;;10.79;97.25;98302.65;106894;1263;70553;-38
2024/04/24 10:11:42;;;;;;;7.00;5.80;;;;;;;10.81;97.33;98295.67;106911;1267;73630;-38
2024/04/24 10:14:10;;;;;;;7.30;5.50;;;;;;;10.83;97.33;98288.79;106812;1267;60890;-38
2024/04/24 10:16:38;;;;;;;6.90;5.40;;;;;;;10.83;97.31;98288.33;106721;1263;60452;-38
2024/04/24 10:19:05;;;;;;;6.50;5.30;;;;;;;10.82;97.61;98284.14;106763;1263;72677;-38
2024/04/24 10:21:33;;;;;;;6.50;5.30;;;;;;;10.81;97.61;98271.04;106870;1268;66853;-38
2024/04/24 10:24:01;;;;;;;5.80;4.70;;;;;;;10.80;97.63;98263.14;106702;1263;74125;-38
2024/04/24 10:26:29;;;;;;;9.10;5.00;;;;;;;10.80;97.72;98267.40;106737;1263;60804;-38
2024/04/24 10:28:56;;;;;;;7.10;4.90;;;;;;;10.82;97.82;98261.75;106829;1263;60441;-38
2024/04/24 10:31:24;;;;;;;7.40;4.70;;;;;;;10.84;98.12;98263.38;106761;1263;76079;-39
2024/04/24 10:33:51;;;;;;;6.10;4.60;;;;;;;10.88;98.15;98267.58;106849;1263;66910;-38
2024/04/24 10:36:19;;;;;;;5.70;4.60;;;;;;;10.90;98.43;98257.72;106761;1263;74821;-38
2024/04/24 10:38:46;;;;;;;7.30;4.40;;;;;;;10.94;98.37;98252.75;106737;1263;61826;-39
2024/04/24 10:41:14;;;;;;;7.50;4.80;;;;;;;10.93;98.44;98243.47;106887;1263;60435;-39
2024/04/24 10:43:42;;;;;;;6.80;4.30;;;;;;;10.98;98.36;98236.03;106745;1263;72708;-38
2024/04/24 10:46:10;;;;;;;5.00;3.90;;;;;;;11.00;98.48;98239.13;106809;1263;68502;-38
2024/04/24 10:48:56;;;;;;;6.80;4.20;;;;;;;11.01;98.51;98232.61;106782;1263;72817;-39
2024/04/24 10:51:28;;;;;;;7.30;3.90;;;;;;;11.02;98.36;98232.07;106806;1263;60615;-38
2024/04/24 10:54:10;;;;;;;5.70;4.40;;;;;;;11.02;98.03;98218.42;106870;1263;60280;-38
2024/04/24 10:56:42;;;;;;;7.40;3.90;;;;;;;11.01;98.00;98219.82;106760;1263;76059;-38
2024/04/24 10:59:10;;;;;;;6.70;4.70;;;;;;;11.00;98.13;98230.83;106851;1263;68494;-38
2024/04/24 11:01:44;;;;;;;5.70;3.80;;;;;;;11.01;98.26;98226.64;106796;1263;71754;-38
2024/04/24 11:04:23;;;;;;;8.10;3.70;;;;;;;11.02;98.17;98208.28;106764;1263;61440;-39
2024/04/24 11:06:51;;;;;;;8.50;4.40;;;;;;;11.02;98.08;98193.72;106738;1263;62245;-38
2024/04/24 11:09:22;;;;;;;6.90;3.70;;;;;;;11.02;97.93;98191.93;106773;1263;73406;-38
2024/04/24 11:11:50;;;;;;;5.70;3.90;;;;;;;11.01;97.78;98185.58;106944;1260;70297;-37
2024/04/24 11:14:17;;;;;;;7.70;4.40;;;;;;;11.02;97.75;98181.48;106860;1260;73040;-39
2024/04/24 11:16:58;;;;;;;8.50;4.10;;;;;;;11.00;97.60;98173.96;107034;1259;60433;-38
2024/04/24 11:19:25;;;;;;;7.60;3.90;;;;;;;10.96;97.66;98168.62;107030;1260;60447;-38
2024/04/24 11:21:53;;;;;;;9.30;4.30;;;;;;;11.02;97.99;98177.13;107057;1260;75978;-38
2024/04/24 11:24:31;;;;;;;7.70;4.40;;;;;;;11.02;98.24;98170.70;107042;1260;67139;-39
2024/04/24 11:27:02;;;;;;;7.30;4.40;;;;;;;11.04;98.00;98157.68;107048;1264;72847;-38
2024/04/24 11:29:39;;;;;;;7.00;4.40;;;;;;;11.05;98.05;98148.22;106975;1260;63710;-39
2024/04/24 11:32:07;;;;;;;7.80;4.80;;;;;;;11.05;98.20;98139.16;107015;1259;60181;-38
2024/04/24 11:34:38;;;;;;;11.90;5.20;;;;;;;11.06;98.37;98140.63;106933;1259;73021;-39
2024/04/24 11:37:05;;;;;;;7.60;5.00;;;;;;;11.05;98.59;98138.07;106883;1260;68378;-38
2024/04/24 11:39:33;;;;;;;6.60;4.60;;;;;;;11.06;98.73;98136.75;107010;1260;74818;-38